sensor_id;sensor_type;location;lat;lon;timestamp;temperature;humidity
4985;DHT22;2509;49.902;8.600;2022-11-20T00:01:43;3.10;99.90
4985;DHT22;2509;49.902;8.600;2022-11-20T00:04:44;3.10;99.90
4985;DHT22;2509;49.902;8.600;2022-11-20T00:07:46;3.20;99.90
4985;DHT22;2509;49.902;8.600;2022-11-20T00:10:48;3.10;99.90
4985;DHT22;2509;49.902;8.600;2022-11-20T00:13:53;3.10;99.90
4985;DHT22;2509;49.902;8.600;2022-11-20T00:16:55;3.10;99.90
4985;DHT22;2509;49.902;8.600;2022-11-20T00:19:57;3.10;99.90
4985;DHT22;2509;49.902;8.600;2022-11-20T00:22:58;3.10;99.90
4985;DHT22;2509;49.902;8.600;2022-11-20T00:26:04;3.10;99.90
4985;DHT22;2509;49.902;8.600;2022-11-20T00:29:09;3.20;99.90
4985;DHT22;2509;49.902;8.600;2022-11-20T00:32:11;3.20;99.90
4985;DHT22;2509;49.902;8.600;2022-11-20T00:35:12;3.20;99.90
4985;DHT22;2509;49.902;8.600;2022-11-20T00:38:14;3.20;99.90
4985;DHT22;2509;49.902;8.600;2022-11-20T00:41:16;3.20;99.90
4985;DHT22;2509;49.902;8.600;2022-11-20T00:44:19;3.20;99.90
4985;DHT22;2509;49.902;8.600;2022-11-20T00:47:21;3.20;99.90
4985;DHT22;2509;49.902;8.600;2022-11-20T00:50:23;3.10;99.90
4985;DHT22;2509;49.902;8.600;2022-11-20T00:53:24;3.10;99.90
4985;DHT22;2509;49.902;8.600;2022-11-20T00:56:26;3.10;99.90
4985;DHT22;2509;49.902;8.600;2022-11-20T00:59:30;3.10;99.90
4985;DHT22;2509;49.902;8.600;2022-11-20T01:02:31;3.10;99.90
4985;DHT22;2509;49.902;8.600;2022-11-20T01:05:34;3.10;99.90
4985;DHT22;2509;49.902;8.600;2022-11-20T01:08:36;3.10;99.90
4985;DHT22;2509;49.902;8.600;2022-11-20T01:11:40;3.10;99.90
4985;DHT22;2509;49.902;8.600;2022-11-20T01:14:43;3.10;99.90
4985;DHT22;2509;49.902;8.600;2022-11-20T01:17:45;3.10;99.90
4985;DHT22;2509;49.902;8.600;2022-11-20T01:20:47;3.10;99.90
4985;DHT22;2509;49.902;8.600;2022-11-20T01:23:49;3.20;99.90
4985;DHT22;2509;49.902;8.600;2022-11-20T01:26:51;3.20;99.90
4985;DHT22;2509;49.902;8.600;2022-11-20T01:29:55;3.10;99.90
4985;DHT22;2509;49.902;8.600;2022-11-20T01:32:56;3.10;99.90
4985;DHT22;2509;49.902;8.600;2022-11-20T01:36:03;3.10;99.90
4985;DHT22;2509;49.902;8.600;2022-11-20T01:39:07;3.10;99.90
4985;DHT22;2509;49.902;8.600;2022-11-20T01:42:09;3.20;99.90
4985;DHT22;2509;49.902;8.600;2022-11-20T01:46:06;3.20;99.90
4985;DHT22;2509;49.902;8.600;2022-11-20T01:49:10;3.20;99.90
4985;DHT22;2509;49.902;8.600;2022-11-20T01:52:17;3.20;99.90
4985;DHT22;2509;49.902;8.600;2022-11-20T01:55:23;3.20;99.90
4985;DHT22;2509;49.902;8.600;2022-11-20T01:58:29;3.20;99.90
4985;DHT22;2509;49.902;8.600;2022-11-20T02:01:33;3.20;99.90
4985;DHT22;2509;49.902;8.600;2022-11-20T02:04:35;3.20;99.90
4985;DHT22;2509;49.902;8.600;2022-11-20T02:07:37;3.20;99.90
4985;DHT22;2509;49.902;8.600;2022-11-20T02:10:40;3.20;99.90
4985;DHT22;2509;49.902;8.600;2022-11-20T02:13:41;3.10;99.90
4985;DHT22;2509;49.902;8.600;2022-11-20T02:16:48;3.10;99.90
4985;DHT22;2509;49.902;8.600;2022-11-20T02:19:51;3.10;99.90
4985;DHT22;2509;49.902;8.600;2022-11-20T02:22:56;3.10;99.90
4985;DHT22;2509;49.902;8.600;2022-11-20T02:26:02;3.10;99.90
4985;DHT22;2509;49.902;8.600;2022-11-20T02:29:04;3.10;99.90
4985;DHT22;2509;49.902;8.600;2022-11-20T02:32:16;3.10;99.90
4985;DHT22;2509;49.902;8.600;2022-11-20T02:35:41;3.20;99.90
4985;DHT22;2509;49.902;8.600;2022-11-20T02:38:43;3.20;99.90
4985;DHT22;2509;49.902;8.600;2022-11-20T02:41:47;3.20;99.90
4985;DHT22;2509;49.902;8.600;2022-11-20T02:44:48;3.20;99.90
4985;DHT22;2509;49.902;8.600;2022-11-20T02:47:50;3.20;99.90
4985;DHT22;2509;49.902;8.600;2022-11-20T02:50:52;3.20;99.90
4985;DHT22;2509;49.902;8.600;2022-11-20T02:53:54;3.20;99.90
4985;DHT22;2509;49.902;8.600;2022-11-20T02:56:57;3.20;99.90
4985;DHT22;2509;49.902;8.600;2022-11-20T02:59:59;3.20;99.90
4985;DHT22;2509;49.902;8.600;2022-11-20T03:03:01;3.10;99.90
4985;DHT22;2509;49.902;8.600;2022-11-20T03:06:03;3.10;99.90
4985;DHT22;2509;49.902;8.600;2022-11-20T03:09:05;3.10;99.90
4985;DHT22;2509;49.902;8.600;2022-11-20T03:12:08;3.10;99.90
4985;DHT22;2509;49.902;8.600;2022-11-20T03:15:10;3.10;99.90
4985;DHT22;2509;49.902;8.600;2022-11-20T03:18:12;3.10;99.90
4985;DHT22;2509;49.902;8.600;2022-11-20T03:21:15;3.10;99.90
4985;DHT22;2509;49.902;8.600;2022-11-20T03:24:17;3.10;99.90
4985;DHT22;2509;49.902;8.600;2022-11-20T03:27:20;3.20;99.90
4985;DHT22;2509;49.902;8.600;2022-11-20T03:30:22;3.20;99.90
4985;DHT22;2509;49.902;8.600;2022-11-20T03:33:24;3.20;99.90
4985;DHT22;2509;49.902;8.600;2022-11-20T03:36:29;3.20;99.90
4985;DHT22;2509;49.902;8.600;2022-11-20T03:39:31;3.20;99.90
4985;DHT22;2509;49.902;8.600;2022-11-20T03:42:34;3.30;99.90
4985;DHT22;2509;49.902;8.600;2022-11-20T03:45:48;3.20;99.90
4985;DHT22;2509;49.902;8.600;2022-11-20T03:48:50;3.20;99.90
4985;DHT22;2509;49.902;8.600;2022-11-20T03:51:52;3.10;99.90
4985;DHT22;2509;49.902;8.600;2022-11-20T03:54:53;3.00;99.90
4985;DHT22;2509;49.902;8.600;2022-11-20T03:57:57;3.00;99.90
4985;DHT22;2509;49.902;8.600;2022-11-20T04:01:04;3.10;99.90
4985;DHT22;2509;49.902;8.600;2022-11-20T04:04:06;3.10;99.90
4985;DHT22;2509;49.902;8.600;2022-11-20T04:07:08;3.00;99.90
4985;DHT22;2509;49.902;8.600;2022-11-20T04:10:09;3.00;99.90
4985;DHT22;2509;49.902;8.600;2022-11-20T04:13:12;3.10;99.90
4985;DHT22;2509;49.902;8.600;2022-11-20T04:16:15;3.10;99.90
4985;DHT22;2509;49.902;8.600;2022-11-20T04:19:17;3.10;99.90
4985;DHT22;2509;49.902;8.600;2022-11-20T04:22:18;3.10;99.90
4985;DHT22;2509;49.902;8.600;2022-11-20T04:25:20;3.00;99.90
4985;DHT22;2509;49.902;8.600;2022-11-20T04:28:23;3.00;99.90
4985;DHT22;2509;49.902;8.600;2022-11-20T04:31:27;3.10;99.90
4985;DHT22;2509;49.902;8.600;2022-11-20T04:34:29;3.10;99.90
4985;DHT22;2509;49.902;8.600;2022-11-20T04:37:31;3.10;99.90
4985;DHT22;2509;49.902;8.600;2022-11-20T04:40:33;3.10;99.90
4985;DHT22;2509;49.902;8.600;2022-11-20T04:43:36;3.20;99.90
4985;DHT22;2509;49.902;8.600;2022-11-20T04:46:39;3.20;99.90
4985;DHT22;2509;49.902;8.600;2022-11-20T04:49:41;3.20;99.90
4985;DHT22;2509;49.902;8.600;2022-11-20T04:52:43;3.20;99.90
4985;DHT22;2509;49.902;8.600;2022-11-20T04:55:45;3.20;99.90
4985;DHT22;2509;49.902;8.600;2022-11-20T04:58:48;3.20;99.90
4985;DHT22;2509;49.902;8.600;2022-11-20T05:01:50;3.20;99.90
4985;DHT22;2509;49.902;8.600;2022-11-20T05:04:52;3.10;99.90
4985;DHT22;2509;49.902;8.600;2022-11-20T05:07:56;3.10;99.90
4985;DHT22;2509;49.902;8.600;2022-11-20T05:11:00;3.20;99.90
4985;DHT22;2509;49.902;8.600;2022-11-20T05:14:03;3.20;99.90
4985;DHT22;2509;49.902;8.600;2022-11-20T05:17:05;3.20;99.90
4985;DHT22;2509;49.902;8.600;2022-11-20T05:20:07;3.20;99.90
4985;DHT22;2509;49.902;8.600;2022-11-20T05:23:09;3.20;99.90
4985;DHT22;2509;49.902;8.600;2022-11-20T05:26:14;3.10;99.90
4985;DHT22;2509;49.902;8.600;2022-11-20T05:29:17;3.10;99.90
4985;DHT22;2509;49.902;8.600;2022-11-20T05:32:19;3.10;99.90
4985;DHT22;2509;49.902;8.600;2022-11-20T05:35:20;3.20;99.90
4985;DHT22;2509;49.902;8.600;2022-11-20T05:38:22;3.20;99.90
4985;DHT22;2509;49.902;8.600;2022-11-20T05:41:24;3.20;99.90
4985;DHT22;2509;49.902;8.600;2022-11-20T05:44:27;3.20;99.90
4985;DHT22;2509;49.902;8.600;2022-11-20T05:47:32;3.20;99.90
4985;DHT22;2509;49.902;8.600;2022-11-20T05:50:35;3.30;99.90
4985;DHT22;2509;49.902;8.600;2022-11-20T05:53:37;3.20;99.90
4985;DHT22;2509;49.902;8.600;2022-11-20T05:56:39;3.20;99.90
4985;DHT22;2509;49.902;8.600;2022-11-20T05:59:43;3.20;99.90
4985;DHT22;2509;49.902;8.600;2022-11-20T06:02:44;3.20;99.90
4985;DHT22;2509;49.902;8.600;2022-11-20T06:05:46;3.20;99.90
4985;DHT22;2509;49.902;8.600;2022-11-20T06:08:49;3.20;99.90
4985;DHT22;2509;49.902;8.600;2022-11-20T06:11:50;3.20;99.90
4985;DHT22;2509;49.902;8.600;2022-11-20T06:14:53;3.20;99.90
4985;DHT22;2509;49.902;8.600;2022-11-20T06:17:55;3.20;99.90
4985;DHT22;2509;49.902;8.600;2022-11-20T06:21:00;3.20;99.90
4985;DHT22;2509;49.902;8.600;2022-11-20T06:24:03;3.20;99.90
4985;DHT22;2509;49.902;8.600;2022-11-20T06:27:04;3.30;99.90
4985;DHT22;2509;49.902;8.600;2022-11-20T06:30:09;3.20;99.90
4985;DHT22;2509;49.902;8.600;2022-11-20T06:33:11;3.20;99.90
4985;DHT22;2509;49.902;8.600;2022-11-20T06:36:15;3.30;99.90
4985;DHT22;2509;49.902;8.600;2022-11-20T06:39:17;3.20;99.90
4985;DHT22;2509;49.902;8.600;2022-11-20T06:42:19;3.20;99.90
4985;DHT22;2509;49.902;8.600;2022-11-20T06:45:22;3.20;99.90
4985;DHT22;2509;49.902;8.600;2022-11-20T06:48:25;3.20;99.90
4985;DHT22;2509;49.902;8.600;2022-11-20T06:51:26;3.20;99.90
4985;DHT22;2509;49.902;8.600;2022-11-20T06:54:28;3.20;99.90
4985;DHT22;2509;49.902;8.600;2022-11-20T06:57:30;3.30;99.90
4985;DHT22;2509;49.902;8.600;2022-11-20T07:00:33;3.30;99.90
4985;DHT22;2509;49.902;8.600;2022-11-20T07:03:35;3.30;99.90
4985;DHT22;2509;49.902;8.600;2022-11-20T07:06:37;3.30;99.90
4985;DHT22;2509;49.902;8.600;2022-11-20T07:09:38;3.30;99.90
4985;DHT22;2509;49.902;8.600;2022-11-20T07:12:40;3.30;99.90
4985;DHT22;2509;49.902;8.600;2022-11-20T07:15:43;3.30;99.90
4985;DHT22;2509;49.902;8.600;2022-11-20T07:18:45;3.30;99.90
4985;DHT22;2509;49.902;8.600;2022-11-20T07:21:47;3.30;99.90
4985;DHT22;2509;49.902;8.600;2022-11-20T07:24:48;3.30;99.90
4985;DHT22;2509;49.902;8.600;2022-11-20T07:27:50;3.30;99.90
4985;DHT22;2509;49.902;8.600;2022-11-20T07:30:53;3.30;99.90
4985;DHT22;2509;49.902;8.600;2022-11-20T07:33:55;3.30;99.90
4985;DHT22;2509;49.902;8.600;2022-11-20T07:36:57;3.30;99.90
4985;DHT22;2509;49.902;8.600;2022-11-20T07:39:59;3.30;99.90
4985;DHT22;2509;49.902;8.600;2022-11-20T07:43:00;3.30;99.90
4985;DHT22;2509;49.902;8.600;2022-11-20T07:46:04;3.40;99.90
4985;DHT22;2509;49.902;8.600;2022-11-20T07:49:06;3.40;99.90
4985;DHT22;2509;49.902;8.600;2022-11-20T07:52:07;3.30;99.90
4985;DHT22;2509;49.902;8.600;2022-11-20T07:55:10;3.40;99.90
4985;DHT22;2509;49.902;8.600;2022-11-20T07:58:11;3.30;99.90
4985;DHT22;2509;49.902;8.600;2022-11-20T08:01:15;3.40;99.90
4985;DHT22;2509;49.902;8.600;2022-11-20T08:04:17;3.40;99.90
4985;DHT22;2509;49.902;8.600;2022-11-20T08:07:19;3.40;99.90
4985;DHT22;2509;49.902;8.600;2022-11-20T08:10:20;3.40;99.90
4985;DHT22;2509;49.902;8.600;2022-11-20T08:13:22;3.40;99.90
4985;DHT22;2509;49.902;8.600;2022-11-20T08:16:44;3.40;99.90
4985;DHT22;2509;49.902;8.600;2022-11-20T08:19:46;3.50;99.90
4985;DHT22;2509;49.902;8.600;2022-11-20T08:22:48;3.50;99.90
4985;DHT22;2509;49.902;8.600;2022-11-20T08:25:50;3.50;99.90
4985;DHT22;2509;49.902;8.600;2022-11-20T08:28:53;3.60;99.90
4985;DHT22;2509;49.902;8.600;2022-11-20T08:31:57;3.60;99.90
4985;DHT22;2509;49.902;8.600;2022-11-20T08:34:58;3.70;99.90
4985;DHT22;2509;49.902;8.600;2022-11-20T08:38:00;3.70;99.90
4985;DHT22;2509;49.902;8.600;2022-11-20T08:41:04;3.60;99.90
4985;DHT22;2509;49.902;8.600;2022-11-20T08:44:25;3.60;99.90
4985;DHT22;2509;49.902;8.600;2022-11-20T08:47:28;3.60;99.90
4985;DHT22;2509;49.902;8.600;2022-11-20T08:50:31;3.70;99.90
4985;DHT22;2509;49.902;8.600;2022-11-20T08:53:33;3.80;99.90
4985;DHT22;2509;49.902;8.600;2022-11-20T08:56:36;3.90;99.90
4985;DHT22;2509;49.902;8.600;2022-11-20T08:59:37;3.90;99.90
4985;DHT22;2509;49.902;8.600;2022-11-20T09:02:41;4.00;99.90
4985;DHT22;2509;49.902;8.600;2022-11-20T09:05:42;4.00;99.90
4985;DHT22;2509;49.902;8.600;2022-11-20T09:08:44;4.00;99.90
4985;DHT22;2509;49.902;8.600;2022-11-20T09:11:46;4.10;99.90
4985;DHT22;2509;49.902;8.600;2022-11-20T09:14:48;4.10;99.90
4985;DHT22;2509;49.902;8.600;2022-11-20T09:17:54;4.20;99.90
4985;DHT22;2509;49.902;8.600;2022-11-20T09:20:57;4.20;99.90
4985;DHT22;2509;49.902;8.600;2022-11-20T09:23:59;4.10;99.90
4985;DHT22;2509;49.902;8.600;2022-11-20T09:27:04;4.10;99.90
4985;DHT22;2509;49.902;8.600;2022-11-20T09:30:07;4.20;99.90
4985;DHT22;2509;49.902;8.600;2022-11-20T09:33:10;4.20;99.90
4985;DHT22;2509;49.902;8.600;2022-11-20T09:36:12;4.20;99.90
4985;DHT22;2509;49.902;8.600;2022-11-20T09:39:13;4.20;99.90
4985;DHT22;2509;49.902;8.600;2022-11-20T09:42:27;4.20;99.90
4985;DHT22;2509;49.902;8.600;2022-11-20T09:45:43;4.30;99.90
4985;DHT22;2509;49.902;8.600;2022-11-20T09:49:09;4.30;99.90
4985;DHT22;2509;49.902;8.600;2022-11-20T09:52:22;4.30;99.90
4985;DHT22;2509;49.902;8.600;2022-11-20T09:55:28;4.30;99.90
4985;DHT22;2509;49.902;8.600;2022-11-20T09:58:33;4.30;99.90
4985;DHT22;2509;49.902;8.600;2022-11-20T10:01:37;4.30;99.90
4985;DHT22;2509;49.902;8.600;2022-11-20T10:04:45;4.30;99.90
4985;DHT22;2509;49.902;8.600;2022-11-20T10:07:53;4.20;99.90
4985;DHT22;2509;49.902;8.600;2022-11-20T10:11:03;4.20;99.90
4985;DHT22;2509;49.902;8.600;2022-11-20T10:14:16;4.30;99.90
4985;DHT22;2509;49.902;8.600;2022-11-20T10:17:30;4.40;99.90
4985;DHT22;2509;49.902;8.600;2022-11-20T10:20:43;4.40;99.90
4985;DHT22;2509;49.902;8.600;2022-11-20T10:24:01;4.50;99.90
4985;DHT22;2509;49.902;8.600;2022-11-20T10:27:13;4.60;99.90
4985;DHT22;2509;49.902;8.600;2022-11-20T10:30:20;4.60;99.90
4985;DHT22;2509;49.902;8.600;2022-11-20T10:33:27;4.50;99.90
4985;DHT22;2509;49.902;8.600;2022-11-20T10:36:35;4.50;99.90
4985;DHT22;2509;49.902;8.600;2022-11-20T10:39:44;4.50;99.90
4985;DHT22;2509;49.902;8.600;2022-11-20T10:42:51;4.50;99.90
4985;DHT22;2509;49.902;8.600;2022-11-20T10:45:58;4.40;99.90
4985;DHT22;2509;49.902;8.600;2022-11-20T10:49:06;4.40;99.90
4985;DHT22;2509;49.902;8.600;2022-11-20T10:52:21;4.40;99.90
4985;DHT22;2509;49.902;8.600;2022-11-20T10:55:32;4.50;99.90
4985;DHT22;2509;49.902;8.600;2022-11-20T10:58:41;4.40;99.90
4985;DHT22;2509;49.902;8.600;2022-11-20T11:01:46;4.50;99.90
4985;DHT22;2509;49.902;8.600;2022-11-20T11:04:50;4.50;99.90
4985;DHT22;2509;49.902;8.600;2022-11-20T11:07:55;4.50;99.90
4985;DHT22;2509;49.902;8.600;2022-11-20T11:11:00;4.50;99.90
4985;DHT22;2509;49.902;8.600;2022-11-20T11:14:05;4.50;99.90
4985;DHT22;2509;49.902;8.600;2022-11-20T11:17:20;4.60;99.90
4985;DHT22;2509;49.902;8.600;2022-11-20T11:20:23;4.60;99.90
4985;DHT22;2509;49.902;8.600;2022-11-20T11:23:31;4.70;99.90
4985;DHT22;2509;49.902;8.600;2022-11-20T11:26:33;4.70;99.90
4985;DHT22;2509;49.902;8.600;2022-11-20T11:29:35;4.70;99.90
4985;DHT22;2509;49.902;8.600;2022-11-20T11:32:37;4.80;99.90
4985;DHT22;2509;49.902;8.600;2022-11-20T11:35:45;4.80;99.90
4985;DHT22;2509;49.902;8.600;2022-11-20T11:38:51;4.80;99.90
4985;DHT22;2509;49.902;8.600;2022-11-20T11:41:53;4.80;99.90
4985;DHT22;2509;49.902;8.600;2022-11-20T11:44:57;4.80;99.90
4985;DHT22;2509;49.902;8.600;2022-11-20T11:48:09;4.80;99.90
4985;DHT22;2509;49.902;8.600;2022-11-20T11:51:11;4.80;99.90
4985;DHT22;2509;49.902;8.600;2022-11-20T11:54:18;4.90;99.90
4985;DHT22;2509;49.902;8.600;2022-11-20T11:57:26;5.00;99.90
4985;DHT22;2509;49.902;8.600;2022-11-20T12:00:30;5.00;99.90
4985;DHT22;2509;49.902;8.600;2022-11-20T12:03:35;5.00;99.90
4985;DHT22;2509;49.902;8.600;2022-11-20T12:06:39;5.00;99.90
4985;DHT22;2509;49.902;8.600;2022-11-20T12:09:49;5.00;99.90
4985;DHT22;2509;49.902;8.600;2022-11-20T12:12:58;5.10;99.90
4985;DHT22;2509;49.902;8.600;2022-11-20T12:16:03;5.20;99.90
4985;DHT22;2509;49.902;8.600;2022-11-20T12:19:09;5.20;99.90
4985;DHT22;2509;49.902;8.600;2022-11-20T12:22:21;5.20;99.90
4985;DHT22;2509;49.902;8.600;2022-11-20T12:25:28;5.20;99.90
4985;DHT22;2509;49.902;8.600;2022-11-20T12:28:53;5.20;99.90
4985;DHT22;2509;49.902;8.600;2022-11-20T12:32:32;5.20;99.90
4985;DHT22;2509;49.902;8.600;2022-11-20T12:35:52;5.10;99.90
4985;DHT22;2509;49.902;8.600;2022-11-20T12:42:40;5.20;99.90
4985;DHT22;2509;49.902;8.600;2022-11-20T12:46:11;5.30;99.90
4985;DHT22;2509;49.902;8.600;2022-11-20T12:49:24;5.30;99.90
4985;DHT22;2509;49.902;8.600;2022-11-20T12:52:37;5.40;99.90
4985;DHT22;2509;49.902;8.600;2022-11-20T12:55:48;5.40;99.90
4985;DHT22;2509;49.902;8.600;2022-11-20T12:59:00;5.40;99.90
4985;DHT22;2509;49.902;8.600;2022-11-20T13:02:18;5.40;99.90
4985;DHT22;2509;49.902;8.600;2022-11-20T13:05:32;5.40;99.90
4985;DHT22;2509;49.902;8.600;2022-11-20T13:08:40;5.40;99.90
4985;DHT22;2509;49.902;8.600;2022-11-20T13:11:47;5.40;99.90
4985;DHT22;2509;49.902;8.600;2022-11-20T13:14:58;5.30;99.90
4985;DHT22;2509;49.902;8.600;2022-11-20T13:18:03;5.30;99.90
4985;DHT22;2509;49.902;8.600;2022-11-20T13:21:17;5.30;99.90
4985;DHT22;2509;49.902;8.600;2022-11-20T13:24:22;5.30;99.90
4985;DHT22;2509;49.902;8.600;2022-11-20T13:27:26;5.40;99.90
4985;DHT22;2509;49.902;8.600;2022-11-20T13:30:33;5.50;99.90
4985;DHT22;2509;49.902;8.600;2022-11-20T13:33:37;5.70;99.90
4985;DHT22;2509;49.902;8.600;2022-11-20T13:36:49;5.70;99.90
4985;DHT22;2509;49.902;8.600;2022-11-20T13:39:51;5.80;99.90
4985;DHT22;2509;49.902;8.600;2022-11-20T13:43:07;5.90;99.90
4985;DHT22;2509;49.902;8.600;2022-11-20T13:46:10;5.90;99.90
4985;DHT22;2509;49.902;8.600;2022-11-20T13:49:25;6.00;99.90
4985;DHT22;2509;49.902;8.600;2022-11-20T13:52:39;6.00;99.90
4985;DHT22;2509;49.902;8.600;2022-11-20T13:55:47;6.00;99.90
4985;DHT22;2509;49.902;8.600;2022-11-20T13:58:58;6.00;99.90
4985;DHT22;2509;49.902;8.600;2022-11-20T14:02:02;6.00;99.90
4985;DHT22;2509;49.902;8.600;2022-11-20T14:05:05;6.00;99.90
4985;DHT22;2509;49.902;8.600;2022-11-20T14:08:12;6.00;99.90
4985;DHT22;2509;49.902;8.600;2022-11-20T14:11:16;6.00;99.90
4985;DHT22;2509;49.902;8.600;2022-11-20T14:14:21;6.10;99.90
4985;DHT22;2509;49.902;8.600;2022-11-20T14:17:30;6.10;99.90
4985;DHT22;2509;49.902;8.600;2022-11-20T14:20:32;6.10;99.90
4985;DHT22;2509;49.902;8.600;2022-11-20T14:23:34;6.10;99.90
4985;DHT22;2509;49.902;8.600;2022-11-20T14:26:37;6.10;99.90
4985;DHT22;2509;49.902;8.600;2022-11-20T14:29:43;6.10;99.90
4985;DHT22;2509;49.902;8.600;2022-11-20T14:32:47;6.10;99.90
4985;DHT22;2509;49.902;8.600;2022-11-20T14:35:51;6.00;99.90
4985;DHT22;2509;49.902;8.600;2022-11-20T14:38:54;6.00;99.90
4985;DHT22;2509;49.902;8.600;2022-11-20T14:41:55;6.00;99.90
4985;DHT22;2509;49.902;8.600;2022-11-20T14:44:58;6.10;99.90
4985;DHT22;2509;49.902;8.600;2022-11-20T14:48:02;6.10;99.90
4985;DHT22;2509;49.902;8.600;2022-11-20T14:51:03;6.10;99.90
4985;DHT22;2509;49.902;8.600;2022-11-20T14:54:09;6.10;99.90
4985;DHT22;2509;49.902;8.600;2022-11-20T14:57:22;6.10;99.90
4985;DHT22;2509;49.902;8.600;2022-11-20T15:00:24;6.10;99.90
4985;DHT22;2509;49.902;8.600;2022-11-20T15:03:32;6.10;99.90
4985;DHT22;2509;49.902;8.600;2022-11-20T15:06:35;6.00;99.90
4985;DHT22;2509;49.902;8.600;2022-11-20T15:09:37;6.00;99.90
4985;DHT22;2509;49.902;8.600;2022-11-20T15:12:41;6.10;99.90
4985;DHT22;2509;49.902;8.600;2022-11-20T15:15:49;6.10;99.90
4985;DHT22;2509;49.902;8.600;2022-11-20T15:18:52;6.10;99.90
4985;DHT22;2509;49.902;8.600;2022-11-20T15:21:54;6.10;99.90
4985;DHT22;2509;49.902;8.600;2022-11-20T15:24:56;6.00;99.90
4985;DHT22;2509;49.902;8.600;2022-11-20T15:27:58;6.00;99.90
4985;DHT22;2509;49.902;8.600;2022-11-20T15:31:00;6.00;99.90
4985;DHT22;2509;49.902;8.600;2022-11-20T15:34:07;6.00;99.90
4985;DHT22;2509;49.902;8.600;2022-11-20T15:37:10;6.00;99.90
4985;DHT22;2509;49.902;8.600;2022-11-20T15:40:12;6.00;99.90
4985;DHT22;2509;49.902;8.600;2022-11-20T15:43:14;6.00;99.90
4985;DHT22;2509;49.902;8.600;2022-11-20T15:46:17;6.00;99.90
4985;DHT22;2509;49.902;8.600;2022-11-20T15:49:22;6.00;99.90
4985;DHT22;2509;49.902;8.600;2022-11-20T15:52:24;6.00;99.90
4985;DHT22;2509;49.902;8.600;2022-11-20T15:55:26;5.90;99.90
4985;DHT22;2509;49.902;8.600;2022-11-20T15:58:28;5.90;99.90
4985;DHT22;2509;49.902;8.600;2022-11-20T16:01:30;5.90;99.90
4985;DHT22;2509;49.902;8.600;2022-11-20T16:04:33;5.90;99.90
4985;DHT22;2509;49.902;8.600;2022-11-20T16:07:35;5.80;99.90
4985;DHT22;2509;49.902;8.600;2022-11-20T16:10:37;5.80;99.90
4985;DHT22;2509;49.902;8.600;2022-11-20T16:13:39;5.80;99.90
4985;DHT22;2509;49.902;8.600;2022-11-20T16:16:58;5.80;99.90
4985;DHT22;2509;49.902;8.600;2022-11-20T16:20:01;5.80;99.90
4985;DHT22;2509;49.902;8.600;2022-11-20T16:23:03;5.80;99.90
4985;DHT22;2509;49.902;8.600;2022-11-20T16:26:09;5.70;99.90
4985;DHT22;2509;49.902;8.600;2022-11-20T16:29:11;5.70;99.90
4985;DHT22;2509;49.902;8.600;2022-11-20T16:32:15;5.70;99.90
4985;DHT22;2509;49.902;8.600;2022-11-20T16:35:18;5.70;99.90
4985;DHT22;2509;49.902;8.600;2022-11-20T16:38:19;5.70;99.90
4985;DHT22;2509;49.902;8.600;2022-11-20T16:41:22;5.70;99.90
4985;DHT22;2509;49.902;8.600;2022-11-20T16:44:26;5.80;99.90
4985;DHT22;2509;49.902;8.600;2022-11-20T16:47:27;5.80;99.90
4985;DHT22;2509;49.902;8.600;2022-11-20T16:50:30;5.90;99.90
4985;DHT22;2509;49.902;8.600;2022-11-20T16:53:33;6.00;99.90
4985;DHT22;2509;49.902;8.600;2022-11-20T16:56:35;6.00;99.90
4985;DHT22;2509;49.902;8.600;2022-11-20T16:59:37;6.10;99.90
4985;DHT22;2509;49.902;8.600;2022-11-20T17:02:38;6.10;99.90
4985;DHT22;2509;49.902;8.600;2022-11-20T17:05:41;6.10;99.90
4985;DHT22;2509;49.902;8.600;2022-11-20T17:08:43;6.10;99.90
4985;DHT22;2509;49.902;8.600;2022-11-20T17:11:47;6.10;99.90
4985;DHT22;2509;49.902;8.600;2022-11-20T17:14:49;6.00;99.90
4985;DHT22;2509;49.902;8.600;2022-11-20T17:17:51;6.00;99.90
4985;DHT22;2509;49.902;8.600;2022-11-20T17:20:54;6.00;99.90
4985;DHT22;2509;49.902;8.600;2022-11-20T17:23:58;6.00;99.90
4985;DHT22;2509;49.902;8.600;2022-11-20T17:27:00;6.00;99.90
4985;DHT22;2509;49.902;8.600;2022-11-20T17:30:02;6.00;99.90
4985;DHT22;2509;49.902;8.600;2022-11-20T17:33:04;6.00;99.90
4985;DHT22;2509;49.902;8.600;2022-11-20T17:36:09;6.00;99.90
4985;DHT22;2509;49.902;8.600;2022-11-20T17:39:12;6.00;99.90
4985;DHT22;2509;49.902;8.600;2022-11-20T17:42:14;6.00;99.90
4985;DHT22;2509;49.902;8.600;2022-11-20T17:45:28;6.00;99.90
4985;DHT22;2509;49.902;8.600;2022-11-20T17:48:30;6.00;99.90
4985;DHT22;2509;49.902;8.600;2022-11-20T17:51:33;6.00;99.90
4985;DHT22;2509;49.902;8.600;2022-11-20T17:54:35;6.00;99.90
4985;DHT22;2509;49.902;8.600;2022-11-20T17:57:37;6.10;99.90
4985;DHT22;2509;49.902;8.600;2022-11-20T18:01:04;6.10;99.90
4985;DHT22;2509;49.902;8.600;2022-11-20T18:04:06;6.10;99.90
4985;DHT22;2509;49.902;8.600;2022-11-20T18:07:09;6.10;99.90
4985;DHT22;2509;49.902;8.600;2022-11-20T18:10:11;6.10;99.90
4985;DHT22;2509;49.902;8.600;2022-11-20T18:13:12;6.10;99.90
4985;DHT22;2509;49.902;8.600;2022-11-20T18:16:14;6.00;99.90
4985;DHT22;2509;49.902;8.600;2022-11-20T18:19:17;6.10;99.90
4985;DHT22;2509;49.902;8.600;2022-11-20T18:22:21;6.00;99.90
4985;DHT22;2509;49.902;8.600;2022-11-20T18:25:23;6.00;99.90
4985;DHT22;2509;49.902;8.600;2022-11-20T18:28:25;6.00;99.90
4985;DHT22;2509;49.902;8.600;2022-11-20T18:31:26;6.00;99.90
4985;DHT22;2509;49.902;8.600;2022-11-20T18:34:28;6.00;99.90
4985;DHT22;2509;49.902;8.600;2022-11-20T18:37:32;5.90;99.90
4985;DHT22;2509;49.902;8.600;2022-11-20T18:40:33;6.00;99.90
4985;DHT22;2509;49.902;8.600;2022-11-20T18:43:36;6.00;99.90
4985;DHT22;2509;49.902;8.600;2022-11-20T18:47:11;5.90;99.90
4985;DHT22;2509;49.902;8.600;2022-11-20T18:50:13;5.90;99.90
4985;DHT22;2509;49.902;8.600;2022-11-20T18:53:16;5.90;99.90
4985;DHT22;2509;49.902;8.600;2022-11-20T18:56:18;5.90;99.90
4985;DHT22;2509;49.902;8.600;2022-11-20T18:59:20;5.90;99.90
4985;DHT22;2509;49.902;8.600;2022-11-20T19:02:22;5.90;99.90
4985;DHT22;2509;49.902;8.600;2022-11-20T19:05:24;5.90;99.90
4985;DHT22;2509;49.902;8.600;2022-11-20T19:08:27;5.90;99.90
4985;DHT22;2509;49.902;8.600;2022-11-20T19:11:29;5.90;99.90
4985;DHT22;2509;49.902;8.600;2022-11-20T19:14:30;5.90;99.90
4985;DHT22;2509;49.902;8.600;2022-11-20T19:17:32;5.90;99.90
4985;DHT22;2509;49.902;8.600;2022-11-20T19:20:34;5.90;99.90
4985;DHT22;2509;49.902;8.600;2022-11-20T19:23:38;5.90;99.90
4985;DHT22;2509;49.902;8.600;2022-11-20T19:26:40;5.90;99.90
4985;DHT22;2509;49.902;8.600;2022-11-20T19:29:41;6.00;99.90
4985;DHT22;2509;49.902;8.600;2022-11-20T19:32:43;6.00;99.90
4985;DHT22;2509;49.902;8.600;2022-11-20T19:35:45;6.00;99.90
4985;DHT22;2509;49.902;8.600;2022-11-20T19:38:50;6.00;99.90
4985;DHT22;2509;49.902;8.600;2022-11-20T19:41:52;6.10;99.90
4985;DHT22;2509;49.902;8.600;2022-11-20T19:44:54;6.10;99.90
4985;DHT22;2509;49.902;8.600;2022-11-20T19:47:57;6.10;99.90
4985;DHT22;2509;49.902;8.600;2022-11-20T19:51:07;6.10;99.90
4985;DHT22;2509;49.902;8.600;2022-11-20T19:54:10;6.10;99.90
4985;DHT22;2509;49.902;8.600;2022-11-20T19:57:12;6.10;99.90
4985;DHT22;2509;49.902;8.600;2022-11-20T20:00:15;6.10;99.90
4985;DHT22;2509;49.902;8.600;2022-11-20T20:03:17;6.10;99.90
4985;DHT22;2509;49.902;8.600;2022-11-20T20:06:22;6.10;99.90
4985;DHT22;2509;49.902;8.600;2022-11-20T20:09:25;6.10;99.90
4985;DHT22;2509;49.902;8.600;2022-11-20T20:12:27;6.10;99.90
4985;DHT22;2509;49.902;8.600;2022-11-20T20:15:28;6.10;99.90
4985;DHT22;2509;49.902;8.600;2022-11-20T20:18:30;6.10;99.90
4985;DHT22;2509;49.902;8.600;2022-11-20T20:21:33;6.10;99.90
4985;DHT22;2509;49.902;8.600;2022-11-20T20:24:37;6.00;99.90
4985;DHT22;2509;49.902;8.600;2022-11-20T20:27:38;6.00;99.90